Time;durP1;ratioP1;P1;durP2;ratioP2;P2;SDS_P1;SDS_P2;PMS_P1;PMS_P2;Temp;Humidity;BMP_temperature;BMP_pressure;BME280_temperature;BME280_humidity;BME280_pressure;Samples;Min_cycle;Max_cycle;Signal;HPM_P1;HPM_P2
2024/02/17 00:01:31;;;;;;;9.82;6.53;;;;;;;11.79;50.01;102016.16;5031664;28;20321;-75
2024/02/17 00:04:01;;;;;;;11.27;6.90;;;;;;;11.78;50.13;102014.38;5027838;28;20167;-75
2024/02/17 00:06:29;;;;;;;11.07;6.28;;;;;;;11.76;50.22;102018.22;5010639;28;20145;-75
2024/02/17 00:08:57;;;;;;;9.13;6.10;;;;;;;11.76;50.24;102015.47;5036564;28;20073;-75
2024/02/17 00:11:26;;;;;;;11.00;6.50;;;;;;;11.76;50.00;102023.72;5008415;28;20049;-75
2024/02/17 00:13:55;;;;;;;11.38;6.60;;;;;;;11.73;49.73;102022.94;5011347;28;20054;-75
2024/02/17 00:16:23;;;;;;;10.55;7.05;;;;;;;11.73;49.70;102022.94;5032703;28;20065;-75
2024/02/17 00:18:51;;;;;;;12.23;6.50;;;;;;;11.73;50.25;102030.28;5020842;28;20045;-75
2024/02/17 00:21:20;;;;;;;9.63;5.55;;;;;;;11.76;49.80;102032.81;5004689;28;20070;-75
2024/02/17 00:23:48;;;;;;;9.93;6.20;;;;;;;11.72;49.86;102028.53;5022801;28;20038;-75
2024/02/17 00:26:17;;;;;;;10.73;6.30;;;;;;;11.73;49.61;102031.16;5027098;28;20132;-75
2024/02/17 00:28:45;;;;;;;11.23;6.80;;;;;;;11.71;50.07;102035.91;5022995;28;20080;-75
2024/02/17 00:31:13;;;;;;;9.23;6.43;;;;;;;11.71;50.08;102030.44;5005926;28;20617;-75
2024/02/17 00:33:41;;;;;;;11.23;6.40;;;;;;;11.71;49.94;102041.41;5029820;28;20091;-75
2024/02/17 00:36:09;;;;;;;13.10;6.57;;;;;;;11.71;49.91;102035.03;5008940;28;20060;-75
2024/02/17 00:38:38;;;;;;;10.27;6.45;;;;;;;11.72;50.03;102044.97;5024573;28;20053;-75
2024/02/17 00:41:07;;;;;;;9.82;6.00;;;;;;;11.70;49.88;102042.38;5035938;28;20073;-75
2024/02/17 00:43:35;;;;;;;10.35;5.95;;;;;;;11.71;49.97;102048.75;5027069;28;20073;-75
2024/02/17 00:46:03;;;;;;;9.40;6.75;;;;;;;11.70;49.62;102044.25;5035447;28;20603;-74
2024/02/17 00:48:32;;;;;;;11.07;6.47;;;;;;;11.69;50.20;102048.84;5034324;28;20095;-75
2024/02/17 00:51:01;;;;;;;10.40;6.80;;;;;;;11.69;49.76;102048.84;5004303;28;20576;-75
2024/02/17 00:53:42;;;;;;;11.43;6.45;;;;;;;11.70;49.54;102052.47;5030415;28;20136;-75
2024/02/17 00:56:13;;;;;;;9.80;6.45;;;;;;;11.67;49.73;102053.56;5028068;23;20051;-75
2024/02/17 00:58:41;;;;;;;12.23;6.90;;;;;;;11.66;49.85;102057.28;5015865;28;20127;-75
2024/02/17 01:01:10;;;;;;;10.15;7.00;;;;;;;11.66;50.42;102062.78;5011635;28;20037;-75
2024/02/17 01:03:49;;;;;;;11.77;6.45;;;;;;;11.66;50.50;102061.91;5014254;28;20056;-75
2024/02/17 01:06:17;;;;;;;10.90;7.25;;;;;;;11.65;49.91;102066.50;5032778;28;20065;-76
2024/02/17 01:08:48;;;;;;;11.68;7.32;;;;;;;11.66;50.00;102071.00;5033076;28;20749;-75
2024/02/17 01:11:18;;;;;;;10.95;7.53;;;;;;;11.64;50.42;102070.22;5032244;28;20105;-74
2024/02/17 01:13:48;;;;;;;12.93;7.72;;;;;;;11.65;49.78;102071.13;5033008;28;20076;-74
2024/02/17 01:16:17;;;;;;;10.95;7.88;;;;;;;11.64;50.38;102083.06;5032647;28;20109;-74
2024/02/17 01:18:45;;;;;;;12.18;7.50;;;;;;;11.63;50.31;102084.97;5009822;28;20699;-74
2024/02/17 01:21:13;;;;;;;12.23;8.07;;;;;;;11.63;49.84;102071.25;4998876;28;20536;-74
2024/02/17 01:23:41;;;;;;;12.23;7.78;;;;;;;11.63;49.86;102078.59;4993489;28;20133;-74
2024/02/17 01:26:10;;;;;;;12.75;7.40;;;;;;;11.65;50.43;102079.34;5027515;28;20470;-74
2024/02/17 01:28:38;;;;;;;13.90;7.70;;;;;;;11.63;50.41;102084.09;5012476;28;20069;-75
2024/02/17 01:31:06;;;;;;;11.25;7.70;;;;;;;11.63;50.67;102084.09;5015892;28;20076;-74
2024/02/17 01:33:34;;;;;;;11.82;7.78;;;;;;;11.62;50.21;102083.19;5028974;28;20052;-75
2024/02/17 01:36:02;;;;;;;12.25;7.45;;;;;;;11.63;50.29;102092.31;5030300;28;20103;-75
2024/02/17 01:38:30;;;;;;;11.45;7.45;;;;;;;11.62;49.84;102090.56;5032221;28;20038;-75
2024/02/17 01:40:58;;;;;;;11.15;7.13;;;;;;;11.62;50.11;102093.28;5006196;28;20054;-75
2024/02/17 01:43:28;;;;;;;10.38;7.18;;;;;;;11.64;49.93;102089.44;5009129;28;20038;-74
2024/02/17 01:45:55;;;;;;;11.98;7.35;;;;;;;11.62;50.19;102099.66;5001327;28;20069;-74
2024/02/17 01:48:23;;;;;;;12.30;7.30;;;;;;;11.63;50.23;102097.78;5044431;28;20045;-74
2024/02/17 01:50:52;;;;;;;11.00;6.88;;;;;;;11.64;50.38;102105.00;5030472;28;20567;-75
2024/02/17 01:53:20;;;;;;;10.75;7.32;;;;;;;11.64;49.98;102110.47;5031804;28;20049;-75
2024/02/17 01:55:48;;;;;;;10.32;7.05;;;;;;;11.64;50.69;102114.09;5011260;28;20053;-75
2024/02/17 01:58:16;;;;;;;10.70;7.43;;;;;;;11.64;50.53;102114.09;5009223;28;20501;-75
2024/02/17 02:00:46;;;;;;;11.07;6.80;;;;;;;11.66;50.54;102123.09;5044301;28;20185;-75
2024/02/17 02:03:14;;;;;;;10.70;7.13;;;;;;;11.64;50.45;102119.59;5008392;28;20129;-75
2024/02/17 02:05:42;;;;;;;10.57;7.32;;;;;;;11.65;50.50;102120.47;5022543;28;20070;-74
2024/02/17 02:08:11;;;;;;;12.55;8.25;;;;;;;11.65;50.12;102131.44;5004686;28;20141;-75
2024/02/17 02:10:39;;;;;;;14.18;9.18;;;;;;;11.65;50.43;102134.19;5019284;28;20045;-74
2024/02/17 02:13:08;;;;;;;12.15;7.78;;;;;;;11.64;50.43;102130.56;5027757;28;20252;-75
2024/02/17 02:15:41;;;;;;;13.82;8.35;;;;;;;11.66;50.05;102125.84;5027526;28;20123;-74
2024/02/17 02:18:13;;;;;;;13.02;8.10;;;;;;;11.66;50.28;102124.97;5007960;28;20080;-75
2024/02/17 02:20:41;;;;;;;12.02;8.38;;;;;;;11.64;49.91;102132.41;5009082;28;20055;-75
2024/02/17 02:23:09;;;;;;;12.70;8.70;;;;;;;11.64;50.34;102126.94;5013349;28;20107;-75
2024/02/17 02:25:41;;;;;;;15.32;8.57;;;;;;;11.64;50.15;102130.56;5029283;28;20435;-75
2024/02/17 02:28:11;;;;;;;12.50;8.77;;;;;;;11.61;50.33;102130.81;5002912;28;20054;-75
2024/02/17 02:30:41;;;;;;;13.73;8.52;;;;;;;11.63;50.53;102128.84;5007812;28;20046;-74
2024/02/17 02:33:09;;;;;;;13.27;8.13;;;;;;;11.62;50.26;102135.31;5020746;28;20045;-75
2024/02/17 02:35:37;;;;;;;11.48;8.00;;;;;;;11.62;50.28;102137.16;5009620;28;20048;-75
2024/02/17 02:38:05;;;;;;;13.18;8.43;;;;;;;11.62;50.73;102137.16;5032785;28;20400;-75
2024/02/17 02:40:33;;;;;;;14.57;8.45;;;;;;;11.62;50.25;102138.03;5009743;28;20049;-74
2024/02/17 02:43:02;;;;;;;12.25;8.32;;;;;;;11.63;50.90;102133.44;5022945;28;20049;-74
2024/02/17 02:45:33;;;;;;;13.57;9.05;;;;;;;11.63;50.57;102139.81;5001725;28;20050;-74
2024/02/17 02:48:01;;;;;;;12.30;8.13;;;;;;;11.61;50.78;102141.78;5021588;28;20041;-74
2024/02/17 02:50:30;;;;;;;12.23;7.95;;;;;;;11.62;50.21;102149.00;5007383;28;20133;-75
2024/02/17 02:52:57;;;;;;;13.05;8.15;;;;;;;11.61;50.35;102147.25;5007782;28;20509;-74
2024/02/17 02:55:25;;;;;;;12.23;8.23;;;;;;;11.62;50.79;102156.34;5012813;28;20072;-74
2024/02/17 02:57:53;;;;;;;13.65;9.10;;;;;;;11.62;50.58;102159.09;5008683;28;20053;-74
2024/02/17 03:00:21;;;;;;;12.48;9.02;;;;;;;11.61;50.31;102160.97;5011778;28;20131;-74
2024/02/17 03:02:51;;;;;;;15.13;8.70;;;;;;;11.61;50.46;102158.22;5021215;28;20069;-75
2024/02/17 03:05:19;;;;;;;13.02;7.97;;;;;;;11.59;50.74;102160.16;5016414;28;20484;-74
2024/02/17 03:07:47;;;;;;;12.02;8.38;;;;;;;11.60;50.60;102163.78;5028984;28;20119;-74
2024/02/17 03:10:15;;;;;;;14.65;8.10;;;;;;;11.59;50.47;102162.03;5007524;28;20127;-74
2024/02/17 03:12:43;;;;;;;13.32;8.30;;;;;;;11.58;50.69;102166.63;5025880;28;20068;-75
2024/02/17 03:15:11;;;;;;;12.68;8.48;;;;;;;11.58;50.60;102163.00;5003644;28;20433;-75
2024/02/17 03:17:40;;;;;;;13.10;8.63;;;;;;;11.57;50.27;102163.97;5024127;28;20115;-75
2024/02/17 03:20:10;;;;;;;12.95;8.27;;;;;;;11.57;50.62;102172.22;5021700;28;20053;-75
2024/02/17 03:22:38;;;;;;;11.45;7.80;;;;;;;11.54;50.29;102177.94;5017111;28;20079;-75
2024/02/17 03:25:07;;;;;;;13.02;8.80;;;;;;;11.56;50.70;102174.06;5027814;28;20132;-74
2024/02/17 03:27:35;;;;;;;12.70;7.88;;;;;;;11.54;50.65;102181.56;5006779;28;20104;-75
2024/02/17 03:30:05;;;;;;;13.25;8.52;;;;;;;11.54;50.29;102186.16;5005496;28;20049;-75
2024/02/17 03:32:33;;;;;;;12.45;8.13;;;;;;;11.54;50.42;102183.41;5002830;28;20560;-74
2024/02/17 03:35:03;;;;;;;12.63;8.15;;;;;;;11.53;50.61;102190.75;5023079;28;20051;-75
2024/02/17 03:37:33;;;;;;;13.68;9.48;;;;;;;11.54;50.59;102199.88;5027238;28;20064;-74
2024/02/17 03:40:01;;;;;;;14.80;8.40;;;;;;;11.52;50.43;102197.22;5025633;28;20131;-74
2024/02/17 03:42:30;;;;;;;12.60;8.80;;;;;;;11.53;50.64;102209.06;5027390;28;20123;-75
2024/02/17 03:44:58;;;;;;;14.43;9.18;;;;;;;11.51;50.25;102206.44;5030219;28;20049;-75
2024/02/17 03:47:26;;;;;;;14.02;8.70;;;;;;;11.52;50.13;102204.56;5027290;28;20056;-74
2024/02/17 03:49:54;;;;;;;11.45;8.45;;;;;;;11.51;50.79;102213.78;5027708;28;20424;-74
2024/02/17 03:52:22;;;;;;;14.43;8.80;;;;;;;11.51;50.88;102216.53;5003131;28;20077;-74
2024/02/17 03:54:52;;;;;;;13.02;8.52;;;;;;;11.52;50.68;102216.41;5025255;28;20050;-74
2024/02/17 03:57:21;;;;;;;13.15;8.20;;;;;;;11.50;50.39;102225.72;5026746;28;20053;-74
2024/02/17 03:59:49;;;;;;;12.85;8.30;;;;;;;11.49;50.36;102227.59;5030109;28;20056;-74
2024/02/17 04:02:17;;;;;;;12.50;8.27;;;;;;;11.49;50.69;102234.94;5026490;28;20052;-75
2024/02/17 04:04:45;;;;;;;11.48;8.13;;;;;;;11.48;50.09;102236.78;5027585;28;20029;-75
2024/02/17 04:07:13;;;;;;;12.50;7.82;;;;;;;11.46;49.97;102230.56;5005867;28;20061;-75
2024/02/17 04:09:41;;;;;;;14.63;8.13;;;;;;;11.47;50.01;102236.94;5007515;28;20046;-75
2024/02/17 04:12:11;;;;;;;12.70;7.80;;;;;;;11.46;50.56;102241.53;5023948;28;20051;-74
2024/02/17 04:14:40;;;;;;;13.48;8.23;;;;;;;11.44;49.97;102248.09;5015147;28;20128;-75
2024/02/17 04:17:09;;;;;;;10.55;7.10;;;;;;;11.43;50.26;102251.81;4996479;28;20045;-75
2024/02/17 04:19:37;;;;;;;11.27;7.68;;;;;;;11.41;50.51;102254.66;5026396;28;20097;-75
2024/02/17 04:22:05;;;;;;;10.85;7.22;;;;;;;11.41;50.61;102265.63;5029350;28;20721;-75
2024/02/17 04:24:33;;;;;;;10.88;7.60;;;;;;;11.40;50.18;102268.47;5008889;28;20459;-75
2024/02/17 04:27:01;;;;;;;12.40;7.45;;;;;;;11.39;50.33;102259.34;5022798;28;20112;-75
2024/02/17 04:29:31;;;;;;;11.25;7.25;;;;;;;11.39;50.54;102262.09;5021307;28;20038;-75
2024/02/17 04:31:59;;;;;;;12.95;7.50;;;;;;;11.38;50.32;102275.94;5024937;28;20071;-76
2024/02/17 04:34:27;;;;;;;10.85;7.00;;;;;;;11.36;50.78;102274.19;5043940;28;20096;-75
2024/02/17 04:36:55;;;;;;;9.32;7.03;;;;;;;11.35;50.77;102277.00;5026822;28;20046;-75
2024/02/17 04:39:23;;;;;;;10.70;7.03;;;;;;;11.36;50.59;102287.00;5029988;28;20096;-75
2024/02/17 04:41:53;;;;;;;10.15;7.38;;;;;;;11.35;50.88;102288.84;5047898;28;20052;-74
2024/02/17 04:44:21;;;;;;;10.90;7.07;;;;;;;11.35;50.92;102294.34;5011401;28;20089;-74
2024/02/17 04:46:50;;;;;;;12.10;7.07;;;;;;;11.36;50.72;102301.59;5005127;28;20101;-74
2024/02/17 04:49:18;;;;;;;11.15;6.70;;;;;;;11.35;50.58;102301.69;5011287;28;20144;-75
2024/02/17 04:51:46;;;;;;;11.82;6.72;;;;;;;11.35;50.45;102302.56;5033117;28;20376;-75
2024/02/17 04:54:14;;;;;;;9.20;6.43;;;;;;;11.34;50.91;102302.66;5012098;28;20048;-75
2024/02/17 04:56:42;;;;;;;10.02;6.65;;;;;;;11.35;50.54;102304.44;5024233;28;20051;-74
2024/02/17 04:59:10;;;;;;;10.00;6.60;;;;;;;11.35;50.62;102304.44;5008182;28;20065;-76
2024/02/17 05:01:38;;;;;;;9.38;7.03;;;;;;;11.34;50.64;102308.16;5026975;28;20087;-75
2024/02/17 05:04:07;;;;;;;9.68;6.13;;;;;;;11.36;50.61;102311.66;5027610;28;20053;-75
2024/02/17 05:06:35;;;;;;;10.93;6.55;;;;;;;11.34;50.62;102320.00;5011532;28;20049;-75
2024/02/17 05:09:03;;;;;;;9.25;6.40;;;;;;;11.35;51.05;102321.75;5006564;28;20541;-75
2024/02/17 05:11:32;;;;;;;11.65;6.38;;;;;;;11.34;51.19;102322.72;5028619;28;20404;-74
2024/02/17 05:13:59;;;;;;;10.23;6.40;;;;;;;11.36;50.56;102322.63;5007681;28;20069;-74
2024/02/17 05:16:27;;;;;;;10.48;6.47;;;;;;;11.35;50.51;102326.34;5017251;28;20605;-74
2024/02/17 05:18:55;;;;;;;11.82;6.80;;;;;;;11.34;50.51;102322.72;5033003;28;20132;-74
2024/02/17 05:21:26;;;;;;;10.45;6.57;;;;;;;11.36;50.88;102329.00;5033300;28;20210;-75
2024/02/17 05:23:53;;;;;;;8.90;6.38;;;;;;;11.35;50.68;102326.34;5032827;28;20049;-74
2024/02/17 05:26:21;;;;;;;9.38;6.20;;;;;;;11.34;50.43;102335.56;5016766;28;20056;-75
2024/02/17 05:28:49;;;;;;;9.90;6.20;;;;;;;11.34;50.59;102346.53;4998443;28;20220;-74
2024/02/17 05:31:28;;;;;;;10.32;6.70;;;;;;;11.38;51.27;102347.22;5026176;28;20038;-74
2024/02/17 05:33:56;;;;;;;10.75;6.60;;;;;;;11.34;51.36;102354.75;5013097;28;20041;-74
2024/02/17 05:36:29;;;;;;;11.52;6.82;;;;;;;11.33;51.31;102350.25;5005813;28;20046;-75
2024/02/17 05:38:57;;;;;;;10.18;6.45;;;;;;;11.34;51.03;102357.47;5018844;28;20313;-74
2024/02/17 05:41:25;;;;;;;8.20;5.88;;;;;;;11.34;51.32;102358.38;5029660;28;20061;-75
2024/02/17 05:43:56;;;;;;;11.98;6.20;;;;;;;11.34;50.91;102361.09;5013691;28;20037;-75
2024/02/17 05:46:24;;;;;;;9.55;6.50;;;;;;;11.33;51.25;102367.56;5017977;28;20124;-75
2024/02/17 05:48:52;;;;;;;9.35;6.38;;;;;;;11.34;50.91;102368.44;5025892;28;20486;-75
2024/02/17 05:51:20;;;;;;;9.23;6.50;;;;;;;11.33;51.05;102370.31;5027384;28;20432;-74
2024/02/17 05:53:50;;;;;;;9.85;6.18;;;;;;;11.36;51.00;102366.50;5018066;28;20130;-75
2024/02/17 05:56:18;;;;;;;8.00;5.28;;;;;;;11.34;50.56;102368.44;5021280;28;20137;-75
2024/02/17 05:58:46;;;;;;;10.20;6.38;;;;;;;11.34;50.49;102371.19;5029930;28;20041;-75
2024/02/17 06:01:13;;;;;;;9.43;6.35;;;;;;;11.34;50.69;102368.44;5014277;28;20060;-75
2024/02/17 06:03:42;;;;;;;9.57;6.20;;;;;;;11.34;51.28;102379.41;5009416;28;20042;-74
2024/02/17 06:06:10;;;;;;;8.82;5.72;;;;;;;11.34;50.78;102384.91;5001791;28;20129;-75
2024/02/17 06:08:38;;;;;;;8.85;5.93;;;;;;;11.32;51.20;102374.03;5026487;28;20038;-74
2024/02/17 06:11:07;;;;;;;9.82;6.03;;;;;;;11.35;51.02;102389.41;5028874;28;20404;-74
2024/02/17 06:13:36;;;;;;;10.32;5.97;;;;;;;11.32;50.87;102386.84;5006534;28;20053;-74
2024/02/17 06:16:06;;;;;;;8.85;6.50;;;;;;;11.32;51.19;102386.84;5012865;28;20049;-74
2024/02/17 06:21:21;;;;;;;10.07;6.00;;;;;;;11.30;50.73;102403.41;5009876;28;20508;-74
2024/02/17 06:23:51;;;;;;;10.07;6.38;;;;;;;11.30;51.01;102405.28;5027128;28;20473;-75
2024/02/17 06:26:24;;;;;;;10.40;6.13;;;;;;;11.32;51.20;102404.19;5033211;28;20380;-74
2024/02/17 06:28:53;;;;;;;8.93;6.53;;;;;;;11.29;51.26;102407.16;5003345;28;20103;-74
2024/02/17 06:31:22;;;;;;;7.78;5.38;;;;;;;11.29;50.72;102403.53;5004970;28;20105;-75
2024/02/17 06:33:50;;;;;;;7.40;5.15;;;;;;;11.28;50.87;102407.25;5010855;28;20405;-74
2024/02/17 06:36:19;;;;;;;9.05;5.72;;;;;;;11.27;50.61;102417.31;5009113;28;20346;-74
2024/02/17 06:38:50;;;;;;;10.70;6.07;;;;;;;11.25;50.46;102411.06;5027254;28;20041;-74
2024/02/17 06:41:19;;;;;;;8.55;5.68;;;;;;;11.25;50.44;102419.28;5028500;28;20038;-74
2024/02/17 06:43:50;;;;;;;9.18;5.65;;;;;;;11.25;50.30;102421.13;5025902;28;20044;-74
2024/02/17 06:46:19;;;;;;;9.20;5.65;;;;;;;11.23;50.77;102423.09;5021699;28;20128;-74
2024/02/17 06:48:49;;;;;;;8.18;5.82;;;;;;;11.22;50.68;102424.09;5028606;28;20060;-74
2024/02/17 06:51:20;;;;;;;9.00;5.80;;;;;;;11.18;51.02;102428.88;5019578;28;20488;-75
2024/02/17 06:53:48;;;;;;;9.25;5.85;;;;;;;11.20;51.15;102439.75;5022460;28;20327;-74
2024/02/17 06:56:17;;;;;;;11.45;6.35;;;;;;;11.19;50.92;102438.88;5020901;28;20428;-74
2024/02/17 06:58:44;;;;;;;11.13;6.35;;;;;;;11.19;51.14;102447.09;5008475;28;20293;-75
2024/02/17 07:01:14;;;;;;;9.60;6.07;;;;;;;11.20;50.79;102450.72;5009810;28;20706;-74
2024/02/17 07:03:42;;;;;;;7.88;5.50;;;;;;;11.19;51.44;102455.31;5008734;28;20050;-74
2024/02/17 07:06:10;;;;;;;7.60;5.22;;;;;;;11.18;51.28;102459.03;5022990;28;20365;-75
2024/02/17 07:08:40;;;;;;;8.80;5.43;;;;;;;11.18;50.91;102459.03;5021851;28;20504;-74
2024/02/17 07:11:09;;;;;;;9.77;5.78;;;;;;;11.19;51.55;102466.28;5030524;28;20054;-74
2024/02/17 07:13:37;;;;;;;8.55;5.68;;;;;;;11.19;51.33;102474.50;5023998;28;20061;-74
2024/02/17 07:16:05;;;;;;;10.50;6.20;;;;;;;11.20;51.51;102472.63;5005823;28;20129;-75
2024/02/17 07:18:35;;;;;;;8.73;6.07;;;;;;;11.21;50.92;102480.75;5006928;28;20073;-74
2024/02/17 07:21:03;;;;;;;9.48;6.22;;;;;;;11.20;50.80;102480.84;5028074;28;20167;-74
2024/02/17 07:23:31;;;;;;;9.52;5.65;;;;;;;11.20;50.86;102491.81;5004205;28;20042;-75
2024/02/17 07:25:59;;;;;;;10.68;5.93;;;;;;;11.20;51.33;102500.03;5006531;28;20141;-74
2024/02/17 07:28:26;;;;;;;8.48;5.18;;;;;;;11.20;50.95;102505.53;4990305;28;20120;-75
2024/02/17 07:30:55;;;;;;;8.68;5.75;;;;;;;11.20;50.62;102506.41;5020189;28;20128;-74
2024/02/17 07:33:23;;;;;;;9.27;6.05;;;;;;;11.19;50.58;102512.84;4998384;28;20046;-74
2024/02/17 07:35:53;;;;;;;8.70;5.90;;;;;;;11.21;50.63;102507.28;5018258;28;20077;-74
2024/02/17 07:38:21;;;;;;;9.15;5.60;;;;;;;11.18;50.77;102508.34;5023185;28;20604;-74
2024/02/17 07:40:49;;;;;;;8.30;5.50;;;;;;;11.18;51.10;102519.31;5024537;28;20271;-75
2024/02/17 07:43:20;;;;;;;8.00;5.68;;;;;;;11.18;50.90;102527.53;5023237;28;20053;-74
2024/02/17 07:45:48;;;;;;;8.68;5.45;;;;;;;11.18;51.08;102534.88;5025184;28;20034;-74
2024/02/17 07:48:18;;;;;;;9.63;5.75;;;;;;;11.17;50.98;102528.50;5026487;28;20073;-74
2024/02/17 07:50:47;;;;;;;8.98;5.00;;;;;;;11.18;50.74;102540.34;5019246;28;20081;-74
2024/02/17 07:53:16;;;;;;;10.57;6.15;;;;;;;11.18;51.10;102541.25;5005024;28;20038;-74
2024/02/17 07:55:44;;;;;;;8.82;5.40;;;;;;;11.16;51.19;102540.44;5025273;28;20037;-74
2024/02/17 07:58:12;;;;;;;9.90;5.82;;;;;;;11.17;51.07;102546.81;5027187;28;20132;-74
2024/02/17 08:00:41;;;;;;;8.32;5.38;;;;;;;11.17;50.37;102557.78;5018837;28;20359;-74
2024/02/17 08:03:09;;;;;;;9.88;5.80;;;;;;;11.16;50.98;102558.75;5005396;28;20066;-74
2024/02/17 08:05:38;;;;;;;8.05;5.30;;;;;;;11.15;51.00;102556.97;5004807;28;20489;-74
2024/02/17 08:08:06;;;;;;;10.15;5.95;;;;;;;11.15;51.28;102566.09;5032570;28;20064;-74
2024/02/17 08:10:36;;;;;;;8.70;5.15;;;;;;;11.17;50.76;102568.72;5005964;28;20054;-72
2024/02/17 08:13:04;;;;;;;10.13;5.55;;;;;;;11.15;50.61;102570.69;5018065;28;20118;-74
2024/02/17 08:15:32;;;;;;;9.57;5.68;;;;;;;11.14;50.82;102575.28;5026769;28;20045;-74
2024/02/17 08:18:00;;;;;;;8.68;5.65;;;;;;;11.14;51.04;102574.44;5018939;28;20057;-74
2024/02/17 08:20:30;;;;;;;8.25;5.25;;;;;;;11.14;50.98;102582.66;5006559;28;20038;-75
2024/02/17 08:22:58;;;;;;;8.60;5.18;;;;;;;11.15;50.78;102589.88;5020904;28;20450;-74
2024/02/17 08:25:26;;;;;;;7.53;5.35;;;;;;;11.14;50.70;102588.13;5029076;28;20042;-75
2024/02/17 08:27:56;;;;;;;8.00;4.93;;;;;;;11.14;51.16;102588.97;5015206;28;20072;-74
2024/02/17 08:30:24;;;;;;;9.32;5.35;;;;;;;11.14;50.82;102599.09;5022807;28;20053;-74
2024/02/17 08:32:55;;;;;;;9.30;5.18;;;;;;;11.13;50.79;102600.94;5008431;28;20053;-74
2024/02/17 08:35:24;;;;;;;8.80;5.57;;;;;;;11.13;51.04;102609.16;5006467;28;20046;-75
2024/02/17 08:37:52;;;;;;;10.07;5.15;;;;;;;11.13;50.69;102611.91;5025927;28;20092;-75
2024/02/17 08:40:20;;;;;;;8.55;5.28;;;;;;;11.13;51.07;102613.75;5023518;28;20053;-75
2024/02/17 08:42:48;;;;;;;7.80;4.97;;;;;;;11.13;50.79;102611.03;5008407;28;20116;-75
2024/02/17 08:45:18;;;;;;;8.02;4.88;;;;;;;11.14;50.46;102612.78;5010704;28;20457;-75
2024/02/17 08:47:46;;;;;;;9.27;5.05;;;;;;;11.12;50.83;102612.88;5027531;28;20137;-74
2024/02/17 08:50:14;;;;;;;7.80;5.45;;;;;;;11.12;50.79;102604.66;5002659;28;20042;-74
2024/02/17 08:52:42;;;;;;;7.25;4.97;;;;;;;11.12;50.51;102615.63;5029471;28;20061;-75
2024/02/17 08:55:10;;;;;;;9.63;5.43;;;;;;;11.12;50.67;102615.63;5029037;28;20058;-76
2024/02/17 08:57:38;;;;;;;9.30;4.88;;;;;;;11.12;50.78;102614.75;5027432;28;20080;-76
2024/02/17 09:00:07;;;;;;;7.60;4.70;;;;;;;11.13;50.58;102619.25;5007389;28;20041;-76
2024/02/17 09:02:37;;;;;;;9.13;5.32;;;;;;;11.14;50.89;102619.13;5015364;28;20056;-76
2024/02/17 09:05:06;;;;;;;9.85;5.28;;;;;;;11.14;50.69;102629.22;5029331;28;20057;-76
2024/02/17 09:07:35;;;;;;;9.55;5.22;;;;;;;11.14;50.82;102634.72;5009106;28;20141;-76
2024/02/17 09:10:03;;;;;;;10.30;5.90;;;;;;;11.14;50.69;102646.53;5016327;28;20494;-76
2024/02/17 09:12:31;;;;;;;7.35;4.88;;;;;;;11.14;50.58;102649.25;5019994;28;20131;-76
2024/02/17 09:14:59;;;;;;;8.02;5.00;;;;;;;11.15;50.50;102650.16;5010924;28;20160;-77
2024/02/17 09:17:28;;;;;;;8.43;5.03;;;;;;;11.14;50.93;102648.41;5009759;28;20042;-77
2024/02/17 09:19:57;;;;;;;8.93;5.28;;;;;;;11.15;50.97;102645.56;5006795;28;20057;-77
2024/02/17 09:22:25;;;;;;;8.77;5.70;;;;;;;11.14;50.66;102649.25;5001374;28;20414;-77
2024/02/17 09:24:55;;;;;;;9.23;5.85;;;;;;;11.14;50.52;102648.41;5003613;28;20127;-77
2024/02/17 09:27:23;;;;;;;8.80;5.32;;;;;;;11.15;50.62;102656.50;5025689;28;20064;-76
2024/02/17 09:29:51;;;;;;;7.47;4.90;;;;;;;11.15;50.82;102670.22;5023354;28;20038;-77
2024/02/17 09:32:19;;;;;;;9.30;5.15;;;;;;;11.17;51.11;102670.13;5010598;28;20074;-77
2024/02/17 09:34:47;;;;;;;8.98;5.32;;;;;;;11.17;50.78;102670.13;5029861;28;20224;-77
2024/02/17 09:37:16;;;;;;;9.80;5.07;;;;;;;11.19;50.69;102679.16;5014057;28;20115;-76
2024/02/17 09:39:45;;;;;;;8.23;4.88;;;;;;;11.18;50.97;102680.13;5031539;28;20095;-76
2024/02/17 09:42:13;;;;;;;9.75;5.25;;;;;;;11.18;50.88;102680.13;5029052;28;20060;-77
2024/02/17 09:44:41;;;;;;;8.60;5.43;;;;;;;11.18;50.28;102680.13;5025384;28;20053;-77
2024/02/17 09:47:09;;;;;;;8.57;4.85;;;;;;;11.18;50.43;102682.84;5031376;28;20059;-76
2024/02/17 09:49:39;;;;;;;8.48;5.10;;;;;;;11.16;50.54;102688.44;5007445;28;20050;-74
2024/02/17 09:52:07;;;;;;;9.68;5.22;;;;;;;11.17;50.42;102687.47;5004734;28;20080;-75
2024/02/17 09:54:39;;;;;;;9.48;5.30;;;;;;;11.19;50.09;102692.84;5014103;28;20049;-75
2024/02/17 09:57:07;;;;;;;8.40;4.78;;;;;;;11.16;50.17;102695.75;5026518;28;20050;-76
2024/02/17 09:59:35;;;;;;;9.68;4.93;;;;;;;11.14;50.13;102698.59;5028617;28;20037;-75
2024/02/17 10:02:04;;;;;;;8.02;5.20;;;;;;;11.16;50.20;102706.72;5030844;28;20091;-73
2024/02/17 10:04:32;;;;;;;9.93;5.28;;;;;;;11.15;50.44;102705.84;5028242;28;20777;-76
2024/02/17 10:07:01;;;;;;;9.02;5.15;;;;;;;11.15;50.49;102713.19;5008243;28;20116;-76
2024/02/17 10:09:29;;;;;;;8.38;5.07;;;;;;;11.14;50.45;102712.28;5014446;28;20155;-73
2024/02/17 10:12:00;;;;;;;9.40;5.30;;;;;;;11.15;50.57;102724.16;5019546;28;20164;-73
2024/02/17 10:14:29;;;;;;;10.68;5.72;;;;;;;11.14;50.63;102716.94;5027489;28;20551;-78
2024/02/17 10:17:00;;;;;;;10.65;5.32;;;;;;;11.14;50.39;102731.47;5025925;28;20403;-73
2024/02/17 10:19:29;;;;;;;9.63;5.40;;;;;;;11.14;50.53;102727.88;5004725;28;20042;-76
2024/02/17 10:21:58;;;;;;;9.27;5.20;;;;;;;11.14;50.59;102727.88;5019487;28;20420;-76
2024/02/17 10:24:26;;;;;;;9.43;5.22;;;;;;;11.13;50.09;102724.25;5004019;28;20457;-75
2024/02/17 10:26:54;;;;;;;10.52;4.93;;;;;;;11.14;50.14;102728.75;5020370;28;20073;-76
2024/02/17 10:29:25;;;;;;;10.13;5.40;;;;;;;11.15;50.68;102726.88;5019017;28;20041;-71
2024/02/17 10:31:53;;;;;;;8.73;4.78;;;;;;;11.14;50.65;102730.63;5015706;28;20107;-77
2024/02/17 10:34:21;;;;;;;9.40;5.32;;;;;;;11.14;50.69;102736.09;5009161;28;20049;-74
2024/02/17 10:36:51;;;;;;;9.20;4.95;;;;;;;11.16;50.04;102736.88;5027425;28;20042;-76
2024/02/17 10:39:22;;;;;;;10.48;5.38;;;;;;;11.16;50.56;102734.13;5012858;28;20128;-77
2024/02/17 10:41:50;;;;;;;9.15;5.32;;;;;;;11.14;50.71;102734.22;5005047;28;20175;-77
2024/02/17 10:44:18;;;;;;;8.48;5.28;;;;;;;11.15;50.17;102733.25;5023111;28;20077;-77
2024/02/17 10:46:48;;;;;;;8.57;5.32;;;;;;;11.17;50.12;102738.66;5024125;28;20041;-77
2024/02/17 10:49:28;;;;;;;14.00;5.88;;;;;;;11.19;50.39;102743.06;5012366;28;20237;-77
2024/02/17 10:51:58;;;;;;;9.10;5.68;;;;;;;11.16;50.70;102743.25;5014052;28;20049;-78
2024/02/17 10:54:33;;;;;;;8.85;5.72;;;;;;;11.19;50.53;102736.69;5005882;28;20420;-80
2024/02/17 10:57:04;;;;;;;9.55;5.68;;;;;;;11.19;50.22;102750.41;5026625;28;20089;-81
2024/02/17 10:59:34;;;;;;;9.27;5.95;;;;;;;11.19;50.55;102756.78;5024999;28;20113;-78
2024/02/17 11:02:05;;;;;;;10.45;5.55;;;;;;;11.19;50.09;102756.78;5028728;28;20412;-74
2024/02/17 11:04:34;;;;;;;11.20;6.10;;;;;;;11.18;50.79;102756.84;5029260;28;20041;-75
2024/02/17 11:07:03;;;;;;;9.73;6.53;;;;;;;11.19;50.49;102759.50;5011154;28;20042;-76
2024/02/17 11:09:31;;;;;;;12.15;6.22;;;;;;;11.19;50.48;102753.16;5007893;28;20528;-76
2024/02/17 11:12:33;;;;;;;9.70;5.75;;;;;;;11.21;50.02;102760.31;5027142;28;20049;-77
2024/02/17 11:15:02;;;;;;;9.87;6.10;;;;;;;11.17;50.54;102760.56;4999290;28;20164;-77
2024/02/17 11:17:35;;;;;;;9.38;5.93;;;;;;;11.22;50.26;102761.19;5013913;28;20065;-76
2024/02/17 11:20:06;;;;;;;11.32;6.18;;;;;;;11.21;50.51;102759.41;5040101;28;20045;-78
2024/02/17 11:22:35;;;;;;;8.32;6.03;;;;;;;11.22;50.12;102763.94;5031921;28;20053;-78
2024/02/17 11:25:05;;;;;;;10.25;6.57;;;;;;;11.24;50.50;102756.47;5013442;28;20121;-76
2024/02/17 11:27:33;;;;;;;11.15;6.53;;;;;;;11.23;50.06;102761.06;5010936;28;20410;-73
2024/02/17 11:30:05;;;;;;;10.98;6.72;;;;;;;11.24;50.04;102765.59;5003979;28;20054;-76
2024/02/17 11:32:38;;;;;;;10.88;6.30;;;;;;;11.27;49.94;102773.63;5011587;28;20152;-76